sensor_id;sensor_type;location;lat;lon;timestamp;temperature;humidity
32522;DHT22;18963;51.504;5.316;2023-04-25T00:02:21;5.60;99.90
32522;DHT22;18963;51.504;5.316;2023-04-25T00:04:47;5.60;99.90
32522;DHT22;18963;51.504;5.316;2023-04-25T00:07:15;5.60;99.90
32522;DHT22;18963;51.504;5.316;2023-04-25T00:09:41;5.60;99.90
32522;DHT22;18963;51.504;5.316;2023-04-25T00:12:06;5.60;99.90
32522;DHT22;18963;51.504;5.316;2023-04-25T00:14:32;5.60;99.90
32522;DHT22;18963;51.504;5.316;2023-04-25T00:16:59;5.60;99.90
32522;DHT22;18963;51.504;5.316;2023-04-25T00:19:25;5.60;99.90
32522;DHT22;18963;51.504;5.316;2023-04-25T00:21:52;5.60;99.90
32522;DHT22;18963;51.504;5.316;2023-04-25T00:24:19;5.60;99.90
32522;DHT22;18963;51.504;5.316;2023-04-25T00:26:44;5.60;99.90
32522;DHT22;18963;51.504;5.316;2023-04-25T00:29:10;5.50;99.90
32522;DHT22;18963;51.504;5.316;2023-04-25T00:31:36;5.50;99.90
32522;DHT22;18963;51.504;5.316;2023-04-25T00:34:01;5.50;99.90
32522;DHT22;18963;51.504;5.316;2023-04-25T00:36:27;5.50;99.90
32522;DHT22;18963;51.504;5.316;2023-04-25T00:38:53;5.50;99.90
32522;DHT22;18963;51.504;5.316;2023-04-25T00:41:19;5.40;99.90
32522;DHT22;18963;51.504;5.316;2023-04-25T00:43:45;5.40;99.90
32522;DHT22;18963;51.504;5.316;2023-04-25T00:46:11;5.30;99.90
32522;DHT22;18963;51.504;5.316;2023-04-25T00:48:37;5.20;99.90
32522;DHT22;18963;51.504;5.316;2023-04-25T00:51:03;5.20;99.90
32522;DHT22;18963;51.504;5.316;2023-04-25T00:53:28;5.10;99.90
32522;DHT22;18963;51.504;5.316;2023-04-25T00:55:55;5.10;99.90
32522;DHT22;18963;51.504;5.316;2023-04-25T00:58:21;5.10;99.90
32522;DHT22;18963;51.504;5.316;2023-04-25T01:00:48;5.10;99.90
32522;DHT22;18963;51.504;5.316;2023-04-25T01:03:15;5.10;99.90
32522;DHT22;18963;51.504;5.316;2023-04-25T01:05:46;5.10;99.90
32522;DHT22;18963;51.504;5.316;2023-04-25T01:08:12;5.10;99.90
32522;DHT22;18963;51.504;5.316;2023-04-25T01:10:38;5.10;99.90
32522;DHT22;18963;51.504;5.316;2023-04-25T01:13:04;5.10;99.90
32522;DHT22;18963;51.504;5.316;2023-04-25T01:15:30;5.10;99.90
32522;DHT22;18963;51.504;5.316;2023-04-25T01:17:55;5.10;99.90
32522;DHT22;18963;51.504;5.316;2023-04-25T01:20:22;5.00;99.90
32522;DHT22;18963;51.504;5.316;2023-04-25T01:22:49;5.00;99.90
32522;DHT22;18963;51.504;5.316;2023-04-25T01:25:15;4.90;99.90
32522;DHT22;18963;51.504;5.316;2023-04-25T01:27:40;4.90;99.90
32522;DHT22;18963;51.504;5.316;2023-04-25T01:30:07;4.80;99.90
32522;DHT22;18963;51.504;5.316;2023-04-25T01:32:33;4.70;99.90
32522;DHT22;18963;51.504;5.316;2023-04-25T01:35:06;4.70;99.90
32522;DHT22;18963;51.504;5.316;2023-04-25T01:37:45;4.50;99.90
32522;DHT22;18963;51.504;5.316;2023-04-25T01:40:12;4.50;99.90
32522;DHT22;18963;51.504;5.316;2023-04-25T01:42:40;4.40;99.90
32522;DHT22;18963;51.504;5.316;2023-04-25T01:45:08;4.40;99.90
32522;DHT22;18963;51.504;5.316;2023-04-25T01:47:34;4.30;99.90
32522;DHT22;18963;51.504;5.316;2023-04-25T01:50:03;4.30;99.90
32522;DHT22;18963;51.504;5.316;2023-04-25T01:52:29;4.20;99.90
32522;DHT22;18963;51.504;5.316;2023-04-25T01:54:55;4.20;99.90
32522;DHT22;18963;51.504;5.316;2023-04-25T01:57:21;4.30;99.90
32522;DHT22;18963;51.504;5.316;2023-04-25T01:59:46;4.30;99.90
32522;DHT22;18963;51.504;5.316;2023-04-25T02:02:12;4.30;99.90
32522;DHT22;18963;51.504;5.316;2023-04-25T02:04:37;4.40;99.90
32522;DHT22;18963;51.504;5.316;2023-04-25T02:07:03;4.40;99.90
32522;DHT22;18963;51.504;5.316;2023-04-25T02:09:29;4.50;99.90
32522;DHT22;18963;51.504;5.316;2023-04-25T02:11:55;4.50;99.90
32522;DHT22;18963;51.504;5.316;2023-04-25T02:14:20;4.60;99.90
32522;DHT22;18963;51.504;5.316;2023-04-25T02:16:46;4.60;99.90
32522;DHT22;18963;51.504;5.316;2023-04-25T02:19:12;4.60;99.90
32522;DHT22;18963;51.504;5.316;2023-04-25T02:21:37;4.60;99.90
32522;DHT22;18963;51.504;5.316;2023-04-25T02:24:03;4.60;99.90
32522;DHT22;18963;51.504;5.316;2023-04-25T02:26:29;4.60;99.90
32522;DHT22;18963;51.504;5.316;2023-04-25T02:28:56;4.60;99.90
32522;DHT22;18963;51.504;5.316;2023-04-25T02:31:21;4.50;99.90
32522;DHT22;18963;51.504;5.316;2023-04-25T02:33:47;4.50;99.90
32522;DHT22;18963;51.504;5.316;2023-04-25T02:36:13;4.40;99.90
32522;DHT22;18963;51.504;5.316;2023-04-25T02:38:38;4.30;99.90
32522;DHT22;18963;51.504;5.316;2023-04-25T02:41:04;4.20;99.90
32522;DHT22;18963;51.504;5.316;2023-04-25T02:43:30;4.30;99.90
32522;DHT22;18963;51.504;5.316;2023-04-25T02:45:55;4.20;99.90
32522;DHT22;18963;51.504;5.316;2023-04-25T02:48:21;4.20;99.90
32522;DHT22;18963;51.504;5.316;2023-04-25T02:50:46;4.20;99.90
32522;DHT22;18963;51.504;5.316;2023-04-25T02:53:12;4.10;99.90
32522;DHT22;18963;51.504;5.316;2023-04-25T02:55:37;4.10;99.90
32522;DHT22;18963;51.504;5.316;2023-04-25T02:58:03;4.00;99.90
32522;DHT22;18963;51.504;5.316;2023-04-25T03:00:29;4.00;99.90
32522;DHT22;18963;51.504;5.316;2023-04-25T03:02:54;4.00;99.90
32522;DHT22;18963;51.504;5.316;2023-04-25T03:05:20;4.00;99.90
32522;DHT22;18963;51.504;5.316;2023-04-25T03:07:46;3.90;99.90
32522;DHT22;18963;51.504;5.316;2023-04-25T03:10:11;3.90;99.90
32522;DHT22;18963;51.504;5.316;2023-04-25T03:12:37;3.90;99.90
32522;DHT22;18963;51.504;5.316;2023-04-25T03:15:03;3.90;99.90
32522;DHT22;18963;51.504;5.316;2023-04-25T03:17:29;3.90;99.90
32522;DHT22;18963;51.504;5.316;2023-04-25T03:19:54;3.90;99.90
32522;DHT22;18963;51.504;5.316;2023-04-25T03:22:20;3.90;99.90
32522;DHT22;18963;51.504;5.316;2023-04-25T03:24:46;4.00;99.90
32522;DHT22;18963;51.504;5.316;2023-04-25T03:27:12;4.00;99.90
32522;DHT22;18963;51.504;5.316;2023-04-25T03:29:38;4.00;99.90
32522;DHT22;18963;51.504;5.316;2023-04-25T03:32:03;4.00;99.90
32522;DHT22;18963;51.504;5.316;2023-04-25T03:34:29;4.00;99.90
32522;DHT22;18963;51.504;5.316;2023-04-25T03:36:54;4.00;99.90
32522;DHT22;18963;51.504;5.316;2023-04-25T03:39:20;4.00;99.90
32522;DHT22;18963;51.504;5.316;2023-04-25T03:41:45;4.10;99.90
32522;DHT22;18963;51.504;5.316;2023-04-25T03:44:11;4.10;99.90
32522;DHT22;18963;51.504;5.316;2023-04-25T03:46:36;4.20;99.90
32522;DHT22;18963;51.504;5.316;2023-04-25T03:49:02;4.20;99.90
32522;DHT22;18963;51.504;5.316;2023-04-25T03:51:27;4.20;99.90
32522;DHT22;18963;51.504;5.316;2023-04-25T03:53:53;4.20;99.90
32522;DHT22;18963;51.504;5.316;2023-04-25T03:56:19;4.30;99.90
32522;DHT22;18963;51.504;5.316;2023-04-25T03:58:45;4.30;99.90
32522;DHT22;18963;51.504;5.316;2023-04-25T04:01:10;4.30;99.90
32522;DHT22;18963;51.504;5.316;2023-04-25T04:03:37;4.40;99.90
32522;DHT22;18963;51.504;5.316;2023-04-25T04:06:03;4.40;99.90
32522;DHT22;18963;51.504;5.316;2023-04-25T04:08:31;4.40;99.90
32522;DHT22;18963;51.504;5.316;2023-04-25T04:10:59;4.40;99.90
32522;DHT22;18963;51.504;5.316;2023-04-25T04:13:28;4.40;99.90
32522;DHT22;18963;51.504;5.316;2023-04-25T04:15:55;4.40;99.90
32522;DHT22;18963;51.504;5.316;2023-04-25T04:18:20;4.50;99.90
32522;DHT22;18963;51.504;5.316;2023-04-25T04:20:46;4.50;99.90
32522;DHT22;18963;51.504;5.316;2023-04-25T04:23:12;4.50;99.90
32522;DHT22;18963;51.504;5.316;2023-04-25T04:25:38;4.50;99.90
32522;DHT22;18963;51.504;5.316;2023-04-25T04:28:05;4.60;99.90
32522;DHT22;18963;51.504;5.316;2023-04-25T04:30:31;4.60;99.90
32522;DHT22;18963;51.504;5.316;2023-04-25T04:32:57;4.60;99.90
32522;DHT22;18963;51.504;5.316;2023-04-25T04:35:23;4.60;99.90
32522;DHT22;18963;51.504;5.316;2023-04-25T04:37:49;4.60;99.90
32522;DHT22;18963;51.504;5.316;2023-04-25T04:40:15;4.70;99.90
32522;DHT22;18963;51.504;5.316;2023-04-25T04:42:44;4.70;99.90
32522;DHT22;18963;51.504;5.316;2023-04-25T04:45:11;4.70;99.90
32522;DHT22;18963;51.504;5.316;2023-04-25T04:47:37;4.70;99.90
32522;DHT22;18963;51.504;5.316;2023-04-25T04:50:09;4.70;99.90
32522;DHT22;18963;51.504;5.316;2023-04-25T04:52:35;4.70;99.90
32522;DHT22;18963;51.504;5.316;2023-04-25T04:55:02;4.70;99.90
32522;DHT22;18963;51.504;5.316;2023-04-25T04:57:28;4.70;99.90
32522;DHT22;18963;51.504;5.316;2023-04-25T04:59:54;4.60;99.90
32522;DHT22;18963;51.504;5.316;2023-04-25T05:02:20;4.60;99.90
32522;DHT22;18963;51.504;5.316;2023-04-25T05:04:45;4.60;99.90
32522;DHT22;18963;51.504;5.316;2023-04-25T05:07:11;4.60;99.90
32522;DHT22;18963;51.504;5.316;2023-04-25T05:09:36;4.60;99.90
32522;DHT22;18963;51.504;5.316;2023-04-25T05:12:02;4.60;99.90
32522;DHT22;18963;51.504;5.316;2023-04-25T05:14:28;4.70;99.90
32522;DHT22;18963;51.504;5.316;2023-04-25T05:16:53;4.80;99.90
32522;DHT22;18963;51.504;5.316;2023-04-25T05:19:19;4.80;99.90
32522;DHT22;18963;51.504;5.316;2023-04-25T05:21:45;4.90;99.90
32522;DHT22;18963;51.504;5.316;2023-04-25T05:24:10;5.00;99.90
32522;DHT22;18963;51.504;5.316;2023-04-25T05:26:36;5.00;99.90
32522;DHT22;18963;51.504;5.316;2023-04-25T05:29:02;5.10;99.90
32522;DHT22;18963;51.504;5.316;2023-04-25T05:31:27;5.20;99.90
32522;DHT22;18963;51.504;5.316;2023-04-25T05:33:53;5.20;99.90
32522;DHT22;18963;51.504;5.316;2023-04-25T05:36:19;5.30;99.90
32522;DHT22;18963;51.504;5.316;2023-04-25T05:38:45;5.30;99.90
32522;DHT22;18963;51.504;5.316;2023-04-25T05:41:10;5.40;99.90
32522;DHT22;18963;51.504;5.316;2023-04-25T05:43:36;5.50;99.90
32522;DHT22;18963;51.504;5.316;2023-04-25T05:46:01;5.50;99.90
32522;DHT22;18963;51.504;5.316;2023-04-25T05:48:27;5.60;99.90
32522;DHT22;18963;51.504;5.316;2023-04-25T05:50:52;5.70;99.90
32522;DHT22;18963;51.504;5.316;2023-04-25T05:53:19;5.80;99.90
32522;DHT22;18963;51.504;5.316;2023-04-25T05:55:45;5.80;99.90
32522;DHT22;18963;51.504;5.316;2023-04-25T05:58:11;5.90;99.90
32522;DHT22;18963;51.504;5.316;2023-04-25T06:00:37;6.00;99.90
32522;DHT22;18963;51.504;5.316;2023-04-25T06:03:03;6.00;99.90
32522;DHT22;18963;51.504;5.316;2023-04-25T06:05:28;6.10;99.90
32522;DHT22;18963;51.504;5.316;2023-04-25T06:07:54;6.10;99.90
32522;DHT22;18963;51.504;5.316;2023-04-25T06:10:19;6.20;99.90
32522;DHT22;18963;51.504;5.316;2023-04-25T06:12:45;6.20;99.90
32522;DHT22;18963;51.504;5.316;2023-04-25T06:15:10;6.30;99.90
32522;DHT22;18963;51.504;5.316;2023-04-25T06:17:36;6.40;99.90
32522;DHT22;18963;51.504;5.316;2023-04-25T06:20:02;6.40;99.90
32522;DHT22;18963;51.504;5.316;2023-04-25T06:22:29;6.50;99.90
32522;DHT22;18963;51.504;5.316;2023-04-25T06:24:54;6.50;99.90
32522;DHT22;18963;51.504;5.316;2023-04-25T06:27:22;6.60;99.90
32522;DHT22;18963;51.504;5.316;2023-04-25T06:29:48;6.70;99.90
32522;DHT22;18963;51.504;5.316;2023-04-25T06:32:13;6.90;99.90
32522;DHT22;18963;51.504;5.316;2023-04-25T06:34:39;7.10;99.90
32522;DHT22;18963;51.504;5.316;2023-04-25T06:37:04;7.30;99.90
32522;DHT22;18963;51.504;5.316;2023-04-25T06:39:30;7.50;99.90
32522;DHT22;18963;51.504;5.316;2023-04-25T06:41:56;7.80;99.90
32522;DHT22;18963;51.504;5.316;2023-04-25T06:44:21;8.00;99.90
32522;DHT22;18963;51.504;5.316;2023-04-25T06:46:49;8.20;99.90
32522;DHT22;18963;51.504;5.316;2023-04-25T06:49:14;8.40;99.90
32522;DHT22;18963;51.504;5.316;2023-04-25T06:51:41;8.70;99.90
32522;DHT22;18963;51.504;5.316;2023-04-25T06:54:06;8.90;99.90
32522;DHT22;18963;51.504;5.316;2023-04-25T06:56:32;9.30;99.90
32522;DHT22;18963;51.504;5.316;2023-04-25T06:58:58;9.40;99.90
32522;DHT22;18963;51.504;5.316;2023-04-25T07:01:26;9.50;99.90
32522;DHT22;18963;51.504;5.316;2023-04-25T07:03:51;9.40;99.90
32522;DHT22;18963;51.504;5.316;2023-04-25T07:06:17;9.40;99.90
32522;DHT22;18963;51.504;5.316;2023-04-25T07:08:42;9.40;99.90
32522;DHT22;18963;51.504;5.316;2023-04-25T07:11:08;9.50;99.90
32522;DHT22;18963;51.504;5.316;2023-04-25T07:13:33;9.40;99.90
32522;DHT22;18963;51.504;5.316;2023-04-25T07:16:00;9.60;99.90
32522;DHT22;18963;51.504;5.316;2023-04-25T07:18:25;9.70;99.90
32522;DHT22;18963;51.504;5.316;2023-04-25T07:20:51;9.80;99.90
32522;DHT22;18963;51.504;5.316;2023-04-25T07:23:16;10.00;99.90
32522;DHT22;18963;51.504;5.316;2023-04-25T07:25:42;10.10;99.90
32522;DHT22;18963;51.504;5.316;2023-04-25T07:28:07;10.20;99.90
32522;DHT22;18963;51.504;5.316;2023-04-25T07:30:33;10.30;99.90
32522;DHT22;18963;51.504;5.316;2023-04-25T07:33:00;10.40;99.90
32522;DHT22;18963;51.504;5.316;2023-04-25T07:35:25;10.40;99.90
32522;DHT22;18963;51.504;5.316;2023-04-25T07:37:51;10.50;99.90
32522;DHT22;18963;51.504;5.316;2023-04-25T07:40:16;10.40;99.90
32522;DHT22;18963;51.504;5.316;2023-04-25T07:42:42;10.50;99.90
32522;DHT22;18963;51.504;5.316;2023-04-25T07:45:08;10.60;99.90
32522;DHT22;18963;51.504;5.316;2023-04-25T07:47:34;10.70;99.90
32522;DHT22;18963;51.504;5.316;2023-04-25T07:50:00;10.70;99.90
32522;DHT22;18963;51.504;5.316;2023-04-25T07:52:26;10.90;99.90
32522;DHT22;18963;51.504;5.316;2023-04-25T07:54:51;11.00;99.90
32522;DHT22;18963;51.504;5.316;2023-04-25T07:57:17;10.80;99.90
32522;DHT22;18963;51.504;5.316;2023-04-25T07:59:43;10.60;99.90
32522;DHT22;18963;51.504;5.316;2023-04-25T08:02:09;10.50;99.90
32522;DHT22;18963;51.504;5.316;2023-04-25T08:04:35;10.30;99.90
32522;DHT22;18963;51.504;5.316;2023-04-25T08:07:00;10.20;99.90
32522;DHT22;18963;51.504;5.316;2023-04-25T08:09:26;10.20;99.90
32522;DHT22;18963;51.504;5.316;2023-04-25T08:11:52;10.00;99.90
32522;DHT22;18963;51.504;5.316;2023-04-25T08:14:17;9.70;99.90
32522;DHT22;18963;51.504;5.316;2023-04-25T08:16:43;9.60;99.90
32522;DHT22;18963;51.504;5.316;2023-04-25T08:19:09;9.50;99.90
32522;DHT22;18963;51.504;5.316;2023-04-25T08:21:36;9.40;99.90
32522;DHT22;18963;51.504;5.316;2023-04-25T08:24:01;9.40;99.90
32522;DHT22;18963;51.504;5.316;2023-04-25T08:26:28;9.50;99.90
32522;DHT22;18963;51.504;5.316;2023-04-25T08:28:54;9.70;99.90
32522;DHT22;18963;51.504;5.316;2023-04-25T08:31:19;9.80;99.90
32522;DHT22;18963;51.504;5.316;2023-04-25T08:33:46;9.80;99.90
32522;DHT22;18963;51.504;5.316;2023-04-25T08:36:11;9.80;99.90
32522;DHT22;18963;51.504;5.316;2023-04-25T08:38:37;10.00;99.90
32522;DHT22;18963;51.504;5.316;2023-04-25T08:41:03;10.00;99.90
32522;DHT22;18963;51.504;5.316;2023-04-25T08:43:29;10.00;99.90
32522;DHT22;18963;51.504;5.316;2023-04-25T08:45:59;10.10;99.90
32522;DHT22;18963;51.504;5.316;2023-04-25T08:48:27;10.20;99.90
32522;DHT22;18963;51.504;5.316;2023-04-25T08:50:56;10.20;99.90
32522;DHT22;18963;51.504;5.316;2023-04-25T08:53:31;10.20;99.90
32522;DHT22;18963;51.504;5.316;2023-04-25T08:55:59;10.20;99.90
32522;DHT22;18963;51.504;5.316;2023-04-25T08:58:27;10.20;99.90
32522;DHT22;18963;51.504;5.316;2023-04-25T09:00:53;10.40;99.90
32522;DHT22;18963;51.504;5.316;2023-04-25T09:03:19;10.50;99.90
32522;DHT22;18963;51.504;5.316;2023-04-25T09:05:44;10.50;99.90
32522;DHT22;18963;51.504;5.316;2023-04-25T09:08:10;10.50;99.90
32522;DHT22;18963;51.504;5.316;2023-04-25T09:10:37;10.60;99.90
32522;DHT22;18963;51.504;5.316;2023-04-25T09:13:13;10.60;99.90
32522;DHT22;18963;51.504;5.316;2023-04-25T09:15:51;10.80;99.90
32522;DHT22;18963;51.504;5.316;2023-04-25T09:18:31;10.70;99.90
32522;DHT22;18963;51.504;5.316;2023-04-25T09:21:07;10.80;99.90
32522;DHT22;18963;51.504;5.316;2023-04-25T09:23:47;11.10;99.90
32522;DHT22;18963;51.504;5.316;2023-04-25T09:26:17;11.30;99.90
32522;DHT22;18963;51.504;5.316;2023-04-25T09:28:43;11.20;99.90
32522;DHT22;18963;51.504;5.316;2023-04-25T09:31:11;11.20;99.90
32522;DHT22;18963;51.504;5.316;2023-04-25T09:33:37;11.00;99.90
32522;DHT22;18963;51.504;5.316;2023-04-25T09:36:07;10.90;99.90
32522;DHT22;18963;51.504;5.316;2023-04-25T09:38:40;11.00;99.90
32522;DHT22;18963;51.504;5.316;2023-04-25T09:41:07;11.20;99.90
32522;DHT22;18963;51.504;5.316;2023-04-25T09:43:33;11.40;99.90
32522;DHT22;18963;51.504;5.316;2023-04-25T09:45:58;11.70;99.90
32522;DHT22;18963;51.504;5.316;2023-04-25T09:48:27;11.90;99.90
32522;DHT22;18963;51.504;5.316;2023-04-25T09:51:13;12.10;99.90
32522;DHT22;18963;51.504;5.316;2023-04-25T09:53:40;12.10;99.90
32522;DHT22;18963;51.504;5.316;2023-04-25T09:56:08;12.30;99.90
32522;DHT22;18963;51.504;5.316;2023-04-25T09:58:36;12.50;99.90
32522;DHT22;18963;51.504;5.316;2023-04-25T10:01:07;12.70;99.90
32522;DHT22;18963;51.504;5.316;2023-04-25T10:03:35;13.00;99.90
32522;DHT22;18963;51.504;5.316;2023-04-25T10:06:03;13.30;99.90
32522;DHT22;18963;51.504;5.316;2023-04-25T10:08:35;13.30;99.90
32522;DHT22;18963;51.504;5.316;2023-04-25T10:11:02;13.50;98.40
32522;DHT22;18963;51.504;5.316;2023-04-25T10:13:31;12.90;96.90
32522;DHT22;18963;51.504;5.316;2023-04-25T10:15:58;12.80;99.90
32522;DHT22;18963;51.504;5.316;2023-04-25T10:18:25;12.60;99.90
32522;DHT22;18963;51.504;5.316;2023-04-25T10:20:58;12.40;98.20
32522;DHT22;18963;51.504;5.316;2023-04-25T10:23:24;12.40;99.90
32522;DHT22;18963;51.504;5.316;2023-04-25T10:25:51;12.80;99.60
32522;DHT22;18963;51.504;5.316;2023-04-25T10:28:17;13.00;97.70
32522;DHT22;18963;51.504;5.316;2023-04-25T10:31:03;13.20;98.10
32522;DHT22;18963;51.504;5.316;2023-04-25T10:33:36;13.20;97.70
32522;DHT22;18963;51.504;5.316;2023-04-25T10:36:15;13.00;94.40
32522;DHT22;18963;51.504;5.316;2023-04-25T10:38:43;12.70;98.60
32522;DHT22;18963;51.504;5.316;2023-04-25T10:41:12;12.50;99.90
32522;DHT22;18963;51.504;5.316;2023-04-25T10:43:45;12.30;99.90
32522;DHT22;18963;51.504;5.316;2023-04-25T10:48:51;11.90;99.90
32522;DHT22;18963;51.504;5.316;2023-04-25T10:51:28;11.80;98.40
32522;DHT22;18963;51.504;5.316;2023-04-25T10:53:59;11.90;99.90
32522;DHT22;18963;51.504;5.316;2023-04-25T10:58:52;12.70;99.90
32522;DHT22;18963;51.504;5.316;2023-04-25T11:01:44;13.00;99.90
32522;DHT22;18963;51.504;5.316;2023-04-25T11:04:24;13.10;97.90
32522;DHT22;18963;51.504;5.316;2023-04-25T11:09:28;13.00;99.40
32522;DHT22;18963;51.504;5.316;2023-04-25T11:11:56;12.70;99.80
32522;DHT22;18963;51.504;5.316;2023-04-25T11:14:22;12.40;99.90
32522;DHT22;18963;51.504;5.316;2023-04-25T11:16:56;12.20;99.90
32522;DHT22;18963;51.504;5.316;2023-04-25T11:19:22;11.70;99.90
32522;DHT22;18963;51.504;5.316;2023-04-25T11:21:48;11.40;99.90
32522;DHT22;18963;51.504;5.316;2023-04-25T11:24:15;11.00;99.90
32522;DHT22;18963;51.504;5.316;2023-04-25T11:26:42;10.60;99.90
32522;DHT22;18963;51.504;5.316;2023-04-25T11:29:08;10.20;99.90
32522;DHT22;18963;51.504;5.316;2023-04-25T11:31:33;10.00;99.90
32522;DHT22;18963;51.504;5.316;2023-04-25T11:33:59;10.00;99.90
32522;DHT22;18963;51.504;5.316;2023-04-25T11:36:26;9.90;99.90
32522;DHT22;18963;51.504;5.316;2023-04-25T11:38:52;9.90;99.90
32522;DHT22;18963;51.504;5.316;2023-04-25T11:41:19;9.90;99.90
32522;DHT22;18963;51.504;5.316;2023-04-25T11:43:45;10.00;99.90
32522;DHT22;18963;51.504;5.316;2023-04-25T11:46:11;10.30;99.90
32522;DHT22;18963;51.504;5.316;2023-04-25T11:48:38;10.50;99.90
32522;DHT22;18963;51.504;5.316;2023-04-25T11:51:04;10.60;99.90
32522;DHT22;18963;51.504;5.316;2023-04-25T11:53:30;10.80;99.90
32522;DHT22;18963;51.504;5.316;2023-04-25T11:55:56;10.70;99.90
32522;DHT22;18963;51.504;5.316;2023-04-25T11:58:21;10.60;99.90
32522;DHT22;18963;51.504;5.316;2023-04-25T12:00:47;10.60;99.90
32522;DHT22;18963;51.504;5.316;2023-04-25T12:03:13;11.10;99.90
32522;DHT22;18963;51.504;5.316;2023-04-25T12:05:38;11.80;99.90
32522;DHT22;18963;51.504;5.316;2023-04-25T12:08:15;12.70;99.90
32522;DHT22;18963;51.504;5.316;2023-04-25T12:10:43;13.50;98.90
32522;DHT22;18963;51.504;5.316;2023-04-25T12:13:23;14.40;95.20
32522;DHT22;18963;51.504;5.316;2023-04-25T12:15:49;15.00;91.60
32522;DHT22;18963;51.504;5.316;2023-04-25T12:18:18;14.50;83.00
32522;DHT22;18963;51.504;5.316;2023-04-25T12:20:44;13.70;82.20
32522;DHT22;18963;51.504;5.316;2023-04-25T12:23:09;13.20;81.70
32522;DHT22;18963;51.504;5.316;2023-04-25T12:25:44;12.70;90.00
32522;DHT22;18963;51.504;5.316;2023-04-25T12:28:17;12.10;91.00
32522;DHT22;18963;51.504;5.316;2023-04-25T12:33:19;11.20;93.50
32522;DHT22;18963;51.504;5.316;2023-04-25T12:35:44;11.00;95.00
32522;DHT22;18963;51.504;5.316;2023-04-25T12:38:10;10.90;96.60
32522;DHT22;18963;51.504;5.316;2023-04-25T12:40:36;10.90;96.60
32522;DHT22;18963;51.504;5.316;2023-04-25T12:43:02;11.00;98.10
32522;DHT22;18963;51.504;5.316;2023-04-25T12:45:27;11.00;98.80
32522;DHT22;18963;51.504;5.316;2023-04-25T12:47:53;10.90;97.00
32522;DHT22;18963;51.504;5.316;2023-04-25T12:50:18;10.60;94.90
32522;DHT22;18963;51.504;5.316;2023-04-25T12:52:44;10.50;96.50
32522;DHT22;18963;51.504;5.316;2023-04-25T12:55:10;10.60;99.30
32522;DHT22;18963;51.504;5.316;2023-04-25T12:57:35;10.60;96.40
32522;DHT22;18963;51.504;5.316;2023-04-25T13:00:01;10.80;97.70
32522;DHT22;18963;51.504;5.316;2023-04-25T13:02:27;10.90;97.80
32522;DHT22;18963;51.504;5.316;2023-04-25T13:04:52;11.10;97.10
32522;DHT22;18963;51.504;5.316;2023-04-25T13:07:18;11.20;97.70
32522;DHT22;18963;51.504;5.316;2023-04-25T13:09:43;11.20;95.60
32522;DHT22;18963;51.504;5.316;2023-04-25T13:12:09;11.20;97.40
32522;DHT22;18963;51.504;5.316;2023-04-25T13:14:34;11.00;97.20
32522;DHT22;18963;51.504;5.316;2023-04-25T13:17:00;10.90;98.30
32522;DHT22;18963;51.504;5.316;2023-04-25T13:19:26;10.80;95.70
32522;DHT22;18963;51.504;5.316;2023-04-25T13:21:51;10.80;97.20
32522;DHT22;18963;51.504;5.316;2023-04-25T13:24:17;10.60;96.60
32522;DHT22;18963;51.504;5.316;2023-04-25T13:26:43;10.50;99.90
32522;DHT22;18963;51.504;5.316;2023-04-25T13:29:08;10.30;97.80
32522;DHT22;18963;51.504;5.316;2023-04-25T13:31:34;10.10;99.20
32522;DHT22;18963;51.504;5.316;2023-04-25T13:34:00;10.00;99.90
32522;DHT22;18963;51.504;5.316;2023-04-25T13:36:26;10.10;99.50
32522;DHT22;18963;51.504;5.316;2023-04-25T13:38:51;10.20;99.10
32522;DHT22;18963;51.504;5.316;2023-04-25T13:41:17;10.10;97.70
32522;DHT22;18963;51.504;5.316;2023-04-25T13:43:44;10.20;98.30
32522;DHT22;18963;51.504;5.316;2023-04-25T13:46:10;10.30;98.60
32522;DHT22;18963;51.504;5.316;2023-04-25T13:48:37;10.40;99.90
32522;DHT22;18963;51.504;5.316;2023-04-25T13:51:02;10.50;99.90
32522;DHT22;18963;51.504;5.316;2023-04-25T13:53:28;10.60;99.90
32522;DHT22;18963;51.504;5.316;2023-04-25T13:55:56;10.90;99.90
32522;DHT22;18963;51.504;5.316;2023-04-25T13:58:22;11.10;97.80
32522;DHT22;18963;51.504;5.316;2023-04-25T14:00:48;11.20;99.50
32522;DHT22;18963;51.504;5.316;2023-04-25T14:03:14;11.40;98.80
32522;DHT22;18963;51.504;5.316;2023-04-25T14:05:39;11.40;98.70
32522;DHT22;18963;51.504;5.316;2023-04-25T14:08:07;11.50;98.20
32522;DHT22;18963;51.504;5.316;2023-04-25T14:10:33;11.40;97.70
32522;DHT22;18963;51.504;5.316;2023-04-25T14:12:59;11.20;95.40
32522;DHT22;18963;51.504;5.316;2023-04-25T14:15:27;11.00;98.80
32522;DHT22;18963;51.504;5.316;2023-04-25T14:17:53;10.90;98.40
32522;DHT22;18963;51.504;5.316;2023-04-25T14:20:19;10.70;98.40
32522;DHT22;18963;51.504;5.316;2023-04-25T14:22:46;10.50;98.70
32522;DHT22;18963;51.504;5.316;2023-04-25T14:25:12;10.40;98.00
32522;DHT22;18963;51.504;5.316;2023-04-25T14:27:38;10.30;99.90
32522;DHT22;18963;51.504;5.316;2023-04-25T14:30:03;10.20;99.90
32522;DHT22;18963;51.504;5.316;2023-04-25T14:32:30;10.20;98.50
32522;DHT22;18963;51.504;5.316;2023-04-25T14:34:58;10.20;98.40
32522;DHT22;18963;51.504;5.316;2023-04-25T14:37:23;10.20;97.30
32522;DHT22;18963;51.504;5.316;2023-04-25T14:39:49;10.30;98.40
32522;DHT22;18963;51.504;5.316;2023-04-25T14:42:14;10.30;96.40
32522;DHT22;18963;51.504;5.316;2023-04-25T14:44:40;10.30;97.40
32522;DHT22;18963;51.504;5.316;2023-04-25T14:47:05;10.30;95.50
32522;DHT22;18963;51.504;5.316;2023-04-25T14:49:32;10.30;98.60
32522;DHT22;18963;51.504;5.316;2023-04-25T14:51:57;10.30;97.00
32522;DHT22;18963;51.504;5.316;2023-04-25T14:54:23;10.30;96.80
32522;DHT22;18963;51.504;5.316;2023-04-25T14:56:48;10.40;96.00
32522;DHT22;18963;51.504;5.316;2023-04-25T14:59:14;10.40;95.80
32522;DHT22;18963;51.504;5.316;2023-04-25T15:01:39;10.40;96.50
32522;DHT22;18963;51.504;5.316;2023-04-25T15:04:05;10.40;93.20
32522;DHT22;18963;51.504;5.316;2023-04-25T15:06:31;10.40;94.80
32522;DHT22;18963;51.504;5.316;2023-04-25T15:08:56;10.40;96.20
32522;DHT22;18963;51.504;5.316;2023-04-25T15:11:22;10.40;95.20
32522;DHT22;18963;51.504;5.316;2023-04-25T15:13:48;10.30;94.20
32522;DHT22;18963;51.504;5.316;2023-04-25T15:16:13;10.30;94.60
32522;DHT22;18963;51.504;5.316;2023-04-25T15:18:39;10.20;97.40
32522;DHT22;18963;51.504;5.316;2023-04-25T15:21:04;10.10;95.80
32522;DHT22;18963;51.504;5.316;2023-04-25T15:23:30;10.10;97.00
32522;DHT22;18963;51.504;5.316;2023-04-25T15:25:56;10.00;98.20
32522;DHT22;18963;51.504;5.316;2023-04-25T15:28:22;9.90;96.90
32522;DHT22;18963;51.504;5.316;2023-04-25T15:30:47;9.80;98.40
32522;DHT22;18963;51.504;5.316;2023-04-25T15:33:13;9.60;99.90
32522;DHT22;18963;51.504;5.316;2023-04-25T15:35:39;9.60;99.90
32522;DHT22;18963;51.504;5.316;2023-04-25T15:38:05;9.60;99.90
32522;DHT22;18963;51.504;5.316;2023-04-25T15:40:31;9.50;99.90
32522;DHT22;18963;51.504;5.316;2023-04-25T15:42:56;9.40;99.90
32522;DHT22;18963;51.504;5.316;2023-04-25T15:45:23;9.40;99.90
32522;DHT22;18963;51.504;5.316;2023-04-25T15:47:51;9.30;99.50